Time;durP1;ratioP1;P1;durP2;ratioP2;P2;SDS_P1;SDS_P2;PMS_P1;PMS_P2;Temp;Humidity;BMP_temperature;BMP_pressure;BME280_temperature;BME280_humidity;BME280_pressure;Samples;Min_cycle;Max_cycle;Signal;HPM_P1;HPM_P2
2023/09/21 00:01:28;;;;;;;0.10;0.10;;;;;;;;;;6299100;28;20034;-86
2023/09/21 00:04:30;;;;;;;0.10;0.10;;;;;;;;;;6298899;28;20372;-86
2023/09/21 00:07:31;;;;;;;0.10;0.10;;;;;;;;;;6298872;28;20458;-87
2023/09/21 00:10:31;;;;;;;0.10;0.10;;;;;;;;;;6280534;28;20078;-86
2023/09/21 00:13:32;;;;;;;0.10;0.10;;;;;;;;;;6298717;28;20100;-87
2023/09/21 00:16:32;;;;;;;0.10;0.10;;;;;;;;;;6298436;28;20441;-86
2023/09/21 00:19:33;;;;;;;0.10;0.10;;;;;;;;;;6298382;28;20027;-86
2023/09/21 00:22:33;;;;;;;0.10;0.10;;;;;;;;;;6298321;28;20028;-86
2023/09/21 00:25:37;;;;;;;0.10;0.10;;;;;;;;;;6299238;28;20039;-87
2023/09/21 00:28:39;;;;;;;0.10;0.10;;;;;;;;;;6280254;28;20059;-86
2023/09/21 00:31:39;;;;;;;0.10;0.10;;;;;;;;;;6280141;28;20079;-87
2023/09/21 00:34:40;;;;;;;0.10;0.10;;;;;;;;;;6297818;28;20433;-86
2023/09/21 00:37:40;;;;;;;0.10;0.10;;;;;;;;;;6298273;28;20047;-87
2023/09/21 00:40:42;;;;;;;0.10;0.10;;;;;;;;;;6298525;28;20095;-87
2023/09/21 00:43:42;;;;;;;0.13;0.13;;;;;;;;;;6297874;28;20031;-86
2023/09/21 00:46:44;;;;;;;0.10;0.10;;;;;;;;;;6279904;28;20499;-86
2023/09/21 00:49:44;;;;;;;0.17;0.17;;;;;;;;;;6298404;28;20075;-86
2023/09/21 00:52:45;;;;;;;0.17;0.17;;;;;;;;;;6297573;28;20466;-86
2023/09/21 00:55:49;;;;;;;0.10;0.10;;;;;;;;;;6298026;28;20031;-86
2023/09/21 00:58:50;;;;;;;0.10;0.10;;;;;;;;;;6297949;28;20135;-85
2023/09/21 01:01:51;;;;;;;0.20;0.20;;;;;;;;;;6297742;28;20035;-85
2023/09/21 01:04:52;;;;;;;0.10;0.10;;;;;;;;;;6297501;28;20028;-85
2023/09/21 01:07:55;;;;;;;0.10;0.10;;;;;;;;;;6297044;28;20056;-86
2023/09/21 01:10:56;;;;;;;0.10;0.10;;;;;;;;;;6297219;28;20064;-86
2023/09/21 01:13:56;;;;;;;0.10;0.10;;;;;;;;;;6297693;28;20016;-84
2023/09/21 01:16:57;;;;;;;0.10;0.10;;;;;;;;;;6297312;28;20101;-86
2023/09/21 01:19:58;;;;;;;0.10;0.10;;;;;;;;;;6297209;28;20100;-86
2023/09/21 01:23:18;;;;;;;0.10;0.10;;;;;;;;;;6297194;28;20439;-86
2023/09/21 01:26:20;;;;;;;0.10;0.10;;;;;;;;;;6279739;28;20056;-86
2023/09/21 01:29:21;;;;;;;0.10;0.10;;;;;;;;;;6297349;28;20091;-86
2023/09/21 01:32:23;;;;;;;0.10;0.10;;;;;;;;;;6297552;28;20028;-86
2023/09/21 01:35:23;;;;;;;0.10;0.10;;;;;;;;;;6297233;28;20022;-86
2023/09/21 01:38:26;;;;;;;0.17;0.17;;;;;;;;;;6297271;28;20371;-86
2023/09/21 01:41:27;;;;;;;0.10;0.10;;;;;;;;;;6296915;28;20020;-87
2023/09/21 01:44:27;;;;;;;0.10;0.10;;;;;;;;;;6297470;28;20363;-86
2023/09/21 01:47:28;;;;;;;0.10;0.10;;;;;;;;;;6279815;28;20075;-86
2023/09/21 01:50:28;;;;;;;0.10;0.10;;;;;;;;;;6297442;28;20031;-86
2023/09/21 01:53:29;;;;;;;0.10;0.10;;;;;;;;;;6297393;28;20024;-86
2023/09/21 01:56:29;;;;;;;0.10;0.10;;;;;;;;;;6296958;28;20038;-85
2023/09/21 01:59:30;;;;;;;0.10;0.10;;;;;;;;;;6296980;28;20017;-86
2023/09/21 02:02:31;;;;;;;0.10;0.10;;;;;;;;;;6296909;28;20075;-86
2023/09/21 02:05:31;;;;;;;0.10;0.10;;;;;;;;;;6278885;28;20032;-86
2023/09/21 02:08:33;;;;;;;0.10;0.10;;;;;;;;;;6297002;28;20127;-86
2023/09/21 02:11:33;;;;;;;0.10;0.10;;;;;;;;;;6296963;28;20035;-86
2023/09/21 02:14:33;;;;;;;0.10;0.10;;;;;;;;;;6296769;28;20462;-86
2023/09/21 02:17:33;;;;;;;0.10;0.10;;;;;;;;;;6297146;28;20024;-88
2023/09/21 02:20:35;;;;;;;0.20;0.20;;;;;;;;;;6300593;28;20104;-87
2023/09/21 02:23:37;;;;;;;0.10;0.10;;;;;;;;;;6301874;28;20485;-87
2023/09/21 02:26:38;;;;;;;0.20;0.20;;;;;;;;;;6301494;28;20017;-86
2023/09/21 02:29:40;;;;;;;0.10;0.10;;;;;;;;;;6283918;28;20016;-87
2023/09/21 02:32:45;;;;;;;0.10;0.10;;;;;;;;;;6301963;28;20039;-85
2023/09/21 02:35:46;;;;;;;0.10;0.10;;;;;;;;;;6301425;28;20017;-86
2023/09/21 02:38:47;;;;;;;0.10;0.10;;;;;;;;;;6283425;28;20194;-85
2023/09/21 02:41:47;;;;;;;0.10;0.10;;;;;;;;;;6302099;28;20020;-85
2023/09/21 02:44:47;;;;;;;0.10;0.10;;;;;;;;;;6283447;28;20028;-85
2023/09/21 02:47:47;;;;;;;0.10;0.10;;;;;;;;;;6301514;28;20050;-86
2023/09/21 02:50:48;;;;;;;0.20;0.20;;;;;;;;;;6283601;28;20029;-86
2023/09/21 02:53:48;;;;;;;0.10;0.10;;;;;;;;;;6301769;28;20120;-86
2023/09/21 02:56:51;;;;;;;0.10;0.10;;;;;;;;;;6300906;28;20017;-86
2023/09/21 02:59:51;;;;;;;0.10;0.10;;;;;;;;;;6301277;28;20016;-86
2023/09/21 03:02:51;;;;;;;0.10;0.10;;;;;;;;;;6300603;28;20024;-86
2023/09/21 03:05:52;;;;;;;0.10;0.10;;;;;;;;;;6300783;28;20120;-86
2023/09/21 03:08:52;;;;;;;0.10;0.10;;;;;;;;;;6300537;28;20107;-86
2023/09/21 03:11:53;;;;;;;0.10;0.10;;;;;;;;;;6300732;28;20509;-86
2023/09/21 03:14:53;;;;;;;0.10;0.10;;;;;;;;;;6300932;28;20021;-86
2023/09/21 03:17:53;;;;;;;0.10;0.10;;;;;;;;;;6300227;28;20025;-86
2023/09/21 03:20:54;;;;;;;0.10;0.10;;;;;;;;;;6300272;28;20074;-86
2023/09/21 03:23:54;;;;;;;0.10;0.10;;;;;;;;;;6300318;28;20036;-86
2023/09/21 03:26:54;;;;;;;0.10;0.10;;;;;;;;;;6300325;28;20032;-86
2023/09/21 03:29:55;;;;;;;0.10;0.10;;;;;;;;;;6299551;28;20067;-86
2023/09/21 03:32:55;;;;;;;0.10;0.10;;;;;;;;;;6281722;28;20107;-86
2023/09/21 03:35:56;;;;;;;0.10;0.10;;;;;;;;;;6299638;28;20094;-88
2023/09/21 03:38:56;;;;;;;0.10;0.10;;;;;;;;;;6299860;28;20028;-88
2023/09/21 03:41:57;;;;;;;0.10;0.10;;;;;;;;;;6299871;28;20017;-88
2023/09/21 03:44:57;;;;;;;0.10;0.10;;;;;;;;;;6299223;28;20024;-88
2023/09/21 03:47:59;;;;;;;0.10;0.10;;;;;;;;;;6281839;28;20020;-88
2023/09/21 03:51:01;;;;;;;;;;;;;;;;;;6299822;28;20028;-88
2023/09/21 03:54:02;;;;;;;0.10;0.10;;;;;;;;;;6298956;28;20435;-88
2023/09/21 03:57:04;;;;;;;0.10;0.10;;;;;;;;;;6264374;28;20055;-87
2023/09/21 04:00:21;;;;;;;0.10;0.10;;;;;;;;;;6281015;28;20052;-87
2023/09/21 04:03:21;;;;;;;0.10;0.10;;;;;;;;;;6298787;28;20024;-88
2023/09/21 04:06:21;;;;;;;0.10;0.10;;;;;;;;;;6281266;28;20028;-88
2023/09/21 04:09:21;;;;;;;0.20;0.20;;;;;;;;;;6298732;28;20074;-87
2023/09/21 04:12:22;;;;;;;0.13;0.13;;;;;;;;;;6298395;28;20033;-88
2023/09/21 04:15:27;;;;;;;0.10;0.10;;;;;;;;;;6281213;28;20083;-89
2023/09/21 04:18:28;;;;;;;0.10;0.10;;;;;;;;;;6298406;28;20364;-89
2023/09/21 04:21:28;;;;;;;0.10;0.10;;;;;;;;;;6281783;28;20024;-89
2023/09/21 04:24:28;;;;;;;0.10;0.10;;;;;;;;;;6298225;28;20048;-89
2023/09/21 04:27:28;;;;;;;0.13;0.13;;;;;;;;;;6298059;28;20031;-89
2023/09/21 04:30:29;;;;;;;0.10;0.10;;;;;;;;;;6280468;28;20043;-89
2023/09/21 04:33:29;;;;;;;0.20;0.20;;;;;;;;;;6280253;28;20505;-89
2023/09/21 04:36:31;;;;;;;0.13;0.13;;;;;;;;;;6298173;28;20016;-87
2023/09/21 04:39:32;;;;;;;0.10;0.10;;;;;;;;;;6298281;28;20027;-87
2023/09/21 04:42:35;;;;;;;0.10;0.10;;;;;;;;;;6280008;28;20111;-87
2023/09/21 04:45:35;;;;;;;0.10;0.10;;;;;;;;;;6298214;28;20020;-88
2023/09/21 04:48:37;;;;;;;0.10;0.10;;;;;;;;;;6298001;28;20044;-87
2023/09/21 04:51:38;;;;;;;0.10;0.10;;;;;;;;;;6297809;28;20378;-85
2023/09/21 04:54:41;;;;;;;0.10;0.10;;;;;;;;;;6298314;28;20378;-86
2023/09/21 04:57:42;;;;;;;0.10;0.10;;;;;;;;;;6298550;28;20375;-85
2023/09/21 05:00:43;;;;;;;0.10;0.10;;;;;;;;;;6298267;28;20017;-87
2023/09/21 05:03:43;;;;;;;0.10;0.10;;;;;;;;;;6298022;28;20021;-86
2023/09/21 05:06:43;;;;;;;0.10;0.10;;;;;;;;;;6279538;28;20068;-86
2023/09/21 05:09:44;;;;;;;0.10;0.10;;;;;;;;;;6297568;28;20363;-86
2023/09/21 05:12:48;;;;;;;0.10;0.10;;;;;;;;;;6279652;28;20017;-86
2023/09/21 05:15:48;;;;;;;0.10;0.10;;;;;;;;;;6297401;28;20065;-86
2023/09/21 05:18:50;;;;;;;0.10;0.10;;;;;;;;;;6297830;28;20025;-85
2023/09/21 05:21:50;;;;;;;0.10;0.10;;;;;;;;;;6279634;28;20023;-85
2023/09/21 05:24:51;;;;;;;0.10;0.10;;;;;;;;;;6279537;28;20025;-86
2023/09/21 05:27:55;;;;;;;0.10;0.10;;;;;;;;;;6279318;28;20029;-85
2023/09/21 05:30:56;;;;;;;0.10;0.10;;;;;;;;;;6279965;28;20060;-86
2023/09/21 05:33:56;;;;;;;0.10;0.10;;;;;;;;;;6297857;28;20021;-85
2023/09/21 05:36:56;;;;;;;0.10;0.10;;;;;;;;;;6297215;28;20017;-85
2023/09/21 05:39:57;;;;;;;0.10;0.10;;;;;;;;;;6297249;28;20080;-85
2023/09/21 05:42:57;;;;;;;0.10;0.10;;;;;;;;;;6297160;28;20043;-85
2023/09/21 05:45:57;;;;;;;0.00;0.00;;;;;;;;;;6298008;28;20059;-84
2023/09/21 05:48:59;;;;;;;0.10;0.10;;;;;;;;;;6279185;28;20024;-85
2023/09/21 05:52:01;;;;;;;0.10;0.10;;;;;;;;;;6296945;28;20046;-85
2023/09/21 05:55:01;;;;;;;;;;;;;;;;;;6300340;28;20542;-85
2023/09/21 05:58:03;;;;;;;0.10;0.10;;;;;;;;;;6302087;28;19904;-88
2023/09/21 06:01:03;;;;;;;0.00;0.00;;;;;;;;;;6302207;28;20024;-88
2023/09/21 06:04:03;;;;;;;0.00;0.00;;;;;;;;;;6301762;28;20036;-89
2023/09/21 06:07:04;;;;;;;0.00;0.00;;;;;;;;;;6301696;28;20056;-88
2023/09/21 06:10:05;;;;;;;0.00;0.00;;;;;;;;;;6283809;28;20441;-88
2023/09/21 06:13:07;;;;;;;0.10;0.10;;;;;;;;;;6301746;28;20020;-89
2023/09/21 06:16:08;;;;;;;0.00;0.00;;;;;;;;;;6283749;28;20032;-89
2023/09/21 06:19:11;;;;;;;0.00;0.00;;;;;;;;;;6283355;28;20043;-89
2023/09/21 06:22:12;;;;;;;0.00;0.00;;;;;;;;;;6283440;28;20024;-88
2023/09/21 06:25:12;;;;;;;;;;;;;;;;;;6301610;28;20036;-90
2023/09/21 06:28:13;;;;;;;0.00;0.00;;;;;;;;;;6301867;28;19940;-88
2023/09/21 06:31:13;;;;;;;0.00;0.00;;;;;;;;;;6283905;28;20024;-88
2023/09/21 06:34:18;;;;;;;0.00;0.00;;;;;;;;;;6283153;28;20012;-88
2023/09/21 06:37:22;;;;;;;0.00;0.00;;;;;;;;;;6283253;28;20103;-89
2023/09/21 06:40:24;;;;;;;0.00;0.00;;;;;;;;;;6282967;28;20359;-88
2023/09/21 06:43:29;;;;;;;0.00;0.00;;;;;;;;;;6301197;28;20111;-90
2023/09/21 06:46:29;;;;;;;0.10;0.10;;;;;;;;;;6283182;28;20390;-89
2023/09/21 06:49:30;;;;;;;0.00;0.00;;;;;;;;;;6300831;28;20031;-90
2023/09/21 06:52:32;;;;;;;0.00;0.00;;;;;;;;;;6300568;28;20486;-89
2023/09/21 06:55:32;;;;;;;0.00;0.00;;;;;;;;;;6301012;28;20458;-90
2023/09/21 06:58:32;;;;;;;0.00;0.00;;;;;;;;;;6301505;28;20016;-89
2023/09/21 07:01:36;;;;;;;0.00;0.00;;;;;;;;;;6300911;28;20021;-90
2023/09/21 07:04:37;;;;;;;0.05;0.05;;;;;;;;;;6282888;28;20386;-90
2023/09/21 07:07:37;;;;;;;0.00;0.00;;;;;;;;;;6299518;28;20414;-86
2023/09/21 07:10:38;;;;;;;0.00;0.00;;;;;;;;;;6300666;28;20079;-85
2023/09/21 07:13:38;;;;;;;0.00;0.00;;;;;;;;;;6300294;28;20017;-85
2023/09/21 07:16:38;;;;;;;0.00;0.00;;;;;;;;;;6300542;28;20013;-86
2023/09/21 07:19:39;;;;;;;0.00;0.00;;;;;;;;;;6299823;28;20097;-85
2023/09/21 07:22:39;;;;;;;0.00;0.00;;;;;;;;;;6300053;28;20497;-85
2023/09/21 07:25:40;;;;;;;0.00;0.00;;;;;;;;;;6299870;28;20419;-86
2023/09/21 07:28:40;;;;;;;;;;;;;;;;;;6300383;28;20027;-85
2023/09/21 07:31:40;;;;;;;0.00;0.00;;;;;;;;;;6300143;28;19912;-85
2023/09/21 07:34:41;;;;;;;0.00;0.00;;;;;;;;;;6299601;28;20039;-86
2023/09/21 07:37:46;;;;;;;0.00;0.00;;;;;;;;;;6299762;28;20375;-86
2023/09/21 07:40:47;;;;;;;0.00;0.00;;;;;;;;;;6299821;28;20020;-85
2023/09/21 07:43:53;;;;;;;0.00;0.00;;;;;;;;;;6281446;28;20421;-85
2023/09/21 07:46:56;;;;;;;0.00;0.00;;;;;;;;;;6281433;28;20039;-85
2023/09/21 07:49:57;;;;;;;0.00;0.00;;;;;;;;;;6282183;28;20028;-85
2023/09/21 07:52:57;;;;;;;0.00;0.00;;;;;;;;;;6299411;28;20020;-85
2023/09/21 07:55:58;;;;;;;0.00;0.00;;;;;;;;;;6281398;28;20387;-85
2023/09/21 07:58:58;;;;;;;0.00;0.00;;;;;;;;;;6299314;28;20070;-85
2023/09/21 08:02:00;;;;;;;0.00;0.00;;;;;;;;;;6281793;28;20458;-85
2023/09/21 08:05:02;;;;;;;0.00;0.00;;;;;;;;;;6281378;28;20028;-85
2023/09/21 08:08:03;;;;;;;0.00;0.00;;;;;;;;;;6298577;28;20392;-85
2023/09/21 08:11:03;;;;;;;0.00;0.00;;;;;;;;;;6298336;28;20071;-85
2023/09/21 08:14:03;;;;;;;0.00;0.00;;;;;;;;;;6298725;28;20427;-86
2023/09/21 08:17:04;;;;;;;0.00;0.00;;;;;;;;;;6298268;28;20024;-86
2023/09/21 08:20:09;;;;;;;0.00;0.00;;;;;;;;;;6280678;28;20434;-86
2023/09/21 08:23:09;;;;;;;0.00;0.00;;;;;;;;;;6298640;28;20047;-85
2023/09/21 08:26:13;;;;;;;0.00;0.00;;;;;;;;;;6281259;28;20024;-85
2023/09/21 08:29:14;;;;;;;0.00;0.00;;;;;;;;;;6280955;28;20473;-85
2023/09/21 08:32:15;;;;;;;0.00;0.00;;;;;;;;;;6299178;28;20029;-85
2023/09/21 08:35:16;;;;;;;0.00;0.00;;;;;;;;;;6298680;28;20459;-85
2023/09/21 08:38:18;;;;;;;0.00;0.00;;;;;;;;;;6280365;28;20466;-85
2023/09/21 08:41:19;;;;;;;0.00;0.00;;;;;;;;;;6281145;28;20119;-85
2023/09/21 08:44:20;;;;;;;0.00;0.00;;;;;;;;;;6298470;28;20356;-85
2023/09/21 08:47:21;;;;;;;0.00;0.00;;;;;;;;;;6298321;28;20039;-85
2023/09/21 08:50:21;;;;;;;0.00;0.00;;;;;;;;;;6297990;28;20090;-84
2023/09/21 08:53:22;;;;;;;0.00;0.00;;;;;;;;;;6280040;28;20024;-84
2023/09/21 08:56:22;;;;;;;;;;;;;;;;;;6298397;28;20016;-85
2023/09/21 08:59:24;;;;;;;0.00;0.00;;;;;;;;;;6297990;28;20351;-85
2023/09/21 09:02:25;;;;;;;0.00;0.00;;;;;;;;;;6280743;28;20455;-85
2023/09/21 09:05:25;;;;;;;0.00;0.00;;;;;;;;;;6279768;28;20016;-85
2023/09/21 09:08:26;;;;;;;0.00;0.00;;;;;;;;;;6279621;28;20052;-85
2023/09/21 09:11:36;;;;;;;0.00;0.00;;;;;;;;;;6298114;28;20274;-86
2023/09/21 09:14:41;;;;;;;0.00;0.00;;;;;;;;;;6298235;28;20036;-87
2023/09/21 09:17:42;;;;;;;0.00;0.00;;;;;;;;;;6263939;28;20442;-85
2023/09/21 09:20:44;;;;;;;0.00;0.00;;;;;;;;;;6298074;28;20021;-84
2023/09/21 09:23:44;;;;;;;0.00;0.00;;;;;;;;;;6279746;28;20413;-86
2023/09/21 09:26:45;;;;;;;0.00;0.00;;;;;;;;;;6280269;28;20025;-91
2023/09/21 09:29:50;;;;;;;0.00;0.00;;;;;;;;;;6301074;28;20365;-91
2023/09/21 09:32:52;;;;;;;0.00;0.00;;;;;;;;;;6283050;28;20370;-90
2023/09/21 09:35:53;;;;;;;0.00;0.00;;;;;;;;;;6300196;28;20016;-91
2023/09/21 09:38:55;;;;;;;0.00;0.00;;;;;;;;;;6282881;28;20347;-90
2023/09/21 09:41:56;;;;;;;0.00;0.00;;;;;;;;;;6301633;28;20031;-90
2023/09/21 09:44:59;;;;;;;0.00;0.00;;;;;;;;;;6301364;28;20025;-90
2023/09/21 09:48:03;;;;;;;0.00;0.00;;;;;;;;;;6282370;28;20028;-90
2023/09/21 09:51:05;;;;;;;0.00;0.00;;;;;;;;;;6301648;28;20020;-91
2023/09/21 09:54:08;;;;;;;0.00;0.00;;;;;;;;;;6283971;28;20013;-90
2023/09/21 09:57:13;;;;;;;0.00;0.00;;;;;;;;;;6302566;28;20009;-91
2023/09/21 10:00:21;;;;;;;0.00;0.00;;;;;;;;;;6300972;28;20020;-91
2023/09/21 10:03:22;;;;;;;0.00;0.00;;;;;;;;;;6301758;28;20070;-91
2023/09/21 10:06:23;;;;;;;0.00;0.00;;;;;;;;;;6299658;28;20025;-89
2023/09/21 10:09:27;;;;;;;0.00;0.00;;;;;;;;;;6317991;28;20108;-91
2023/09/21 10:12:32;;;;;;;0.00;0.00;;;;;;;;;;6308888;28;20090;-89
2023/09/21 10:15:33;;;;;;;0.00;0.00;;;;;;;;;;6308818;28;20095;-91
2023/09/21 10:18:37;;;;;;;0.00;0.00;;;;;;;;;;6279692;28;20033;-91
2023/09/21 10:21:43;;;;;;;0.00;0.00;;;;;;;;;;6298249;28;20051;-91
2023/09/21 10:24:49;;;;;;;0.00;0.00;;;;;;;;;;6280812;28;20459;-92
2023/09/21 10:27:49;;;;;;;0.00;0.00;;;;;;;;;;6278952;28;20107;-85
2023/09/21 10:30:53;;;;;;;0.00;0.00;;;;;;;;;;6278353;28;20033;-85
2023/09/21 10:33:56;;;;;;;0.00;0.00;;;;;;;;;;6279565;28;20375;-85
2023/09/21 10:37:10;;;;;;;0.00;0.00;;;;;;;;;;6297467;28;20059;-85
2023/09/21 10:40:19;;;;;;;0.00;0.00;;;;;;;;;;6280796;28;20039;-86
2023/09/21 10:43:38;;;;;;;0.00;0.00;;;;;;;;;;6283956;28;20050;-86
2023/09/21 10:46:41;;;;;;;0.00;0.00;;;;;;;;;;6301403;28;20203;-86
2023/09/21 10:49:41;;;;;;;0.00;0.00;;;;;;;;;;6301248;28;20020;-85
2023/09/21 10:52:43;;;;;;;0.00;0.00;;;;;;;;;;6300919;28;20020;-85
2023/09/21 10:55:43;;;;;;;0.00;0.00;;;;;;;;;;6301247;28;20019;-86
2023/09/21 10:58:43;;;;;;;0.00;0.00;;;;;;;;;;6301181;28;20040;-86
2023/09/21 11:01:44;;;;;;;0.00;0.00;;;;;;;;;;6300776;28;20090;-86
2023/09/21 11:04:44;;;;;;;;;;;;;;;;;;6300925;28;20032;-84
2023/09/21 11:07:45;;;;;;;0.00;0.00;;;;;;;;;;6300361;28;20007;-85
2023/09/21 11:10:46;;;;;;;0.00;0.00;;;;;;;;;;6301449;28;20046;-85
2023/09/21 11:13:53;;;;;;;0.00;0.00;;;;;;;;;;6300299;28;20020;-86
2023/09/21 11:16:53;;;;;;;0.00;0.00;;;;;;;;;;6282102;28;20020;-85
2023/09/21 11:19:54;;;;;;;;;;;;;;;;;;6301006;28;20056;-85
2023/09/21 11:22:54;;;;;;;0.00;0.00;;;;;;;;;;6300233;28;19908;-85
2023/09/21 11:25:55;;;;;;;;;;;;;;;;;;6282191;28;20028;-84
2023/09/21 11:28:58;;;;;;;0.00;0.00;;;;;;;;;;6282008;28;19909;-84
2023/09/21 11:31:58;;;;;;;0.00;0.00;;;;;;;;;;6281863;28;20027;-84
2023/09/21 11:34:58;;;;;;;;;;;;;;;;;;6300187;28;20048;-85
2023/09/21 11:37:59;;;;;;;0.00;0.00;;;;;;;;;;6306804;28;19904;-89
2023/09/21 11:40:59;;;;;;;;;;;;;;;;;;6310052;28;20020;-89
2023/09/21 11:44:06;;;;;;;0.00;0.00;;;;;;;;;;6287465;28;19931;-91
2023/09/21 11:47:09;;;;;;;0.00;0.00;;;;;;;;;;6268308;28;20067;-85
2023/09/21 11:50:10;;;;;;;0.00;0.00;;;;;;;;;;6282210;28;20094;-85
2023/09/21 11:53:21;;;;;;;0.00;0.00;;;;;;;;;;6298946;28;20032;-86
2023/09/21 11:56:22;;;;;;;0.00;0.00;;;;;;;;;;6299519;28;20024;-85
2023/09/21 11:59:23;;;;;;;0.00;0.00;;;;;;;;;;6299513;28;20020;-86
2023/09/21 12:02:24;;;;;;;0.00;0.00;;;;;;;;;;6299401;28;20035;-86
2023/09/21 12:05:25;;;;;;;0.00;0.00;;;;;;;;;;6299823;28;20044;-86
2023/09/21 12:08:25;;;;;;;;;;;;;;;;;;6263917;28;20528;-86
2023/09/21 12:11:25;;;;;;;;;;;;;;;;;;6275380;28;19940;-86
2023/09/21 12:14:25;;;;;;;;;;;;;;;;;;6274600;28;19904;-87
2023/09/21 12:17:26;;;;;;;;;;;;;;;;;;6274541;28;20282;-86
2023/09/21 12:20:29;;;;;;;;;;;;;;;;;;6274704;28;19908;-86
2023/09/21 12:23:29;;;;;;;;;;;;;;;;;;6274145;28;20398;-86
2023/09/21 12:26:29;;;;;;;;;;;;;;;;;;6256089;28;19905;-85
2023/09/21 12:29:29;;;;;;;;;;;;;;;;;;6273833;28;19909;-85
2023/09/21 12:32:31;;;;;;;;;;;;;;;;;;6256087;28;19908;-85
2023/09/21 12:35:31;;;;;;;;;;;;;;;;;;6273950;28;19905;-85
2023/09/21 12:38:32;;;;;;;;;;;;;;;;;;6273864;28;20293;-85
2023/09/21 12:41:33;;;;;;;;;;;;;;;;;;6273361;28;19905;-86
2023/09/21 12:44:35;;;;;;;;;;;;;;;;;;6273073;28;19959;-85
2023/09/21 12:47:36;;;;;;;;;;;;;;;;;;6273349;28;19909;-85
2023/09/21 12:50:36;;;;;;;;;;;;;;;;;;6255380;28;19943;-85
2023/09/21 12:53:36;;;;;;;;;;;;;;;;;;6273559;28;19909;-85
2023/09/21 12:56:37;;;;;;;;;;;;;;;;;;6273591;28;19963;-91
2023/09/21 12:59:38;;;;;;;;;;;;;;;;;;6273692;28;19911;-91
2023/09/21 13:02:38;;;;;;;;;;;;;;;;;;6255264;28;20041;-92
2023/09/21 13:05:40;;;;;;;;;;;;;;;;;;6273175;28;20374;-91
2023/09/21 13:08:40;;;;;;;;;;;;;;;;;;6292555;28;19912;-91
2023/09/21 13:11:40;;;;;;;;;;;;;;;;;;6298678;28;20369;-92
2023/09/21 13:14:41;;;;;;;;;;;;;;;;;;6280101;28;19905;-91
2023/09/21 13:17:42;;;;;;;;;;;;;;;;;;6298396;28;19911;-92
2023/09/21 13:20:42;;;;;;;;;;;;;;;;;;6282817;28;19927;-91
2023/09/21 13:23:43;;;;;;;;;;;;;;;;;;6281369;28;19990;-92
2023/09/21 13:26:44;;;;;;;;;;;;;;;;;;6280854;28;19904;-92
2023/09/21 13:29:45;;;;;;;;;;;;;;;;;;6298480;28;19970;-92
2023/09/21 13:32:45;;;;;;;;;;;;;;;;;;6299040;28;19912;-92
2023/09/21 13:35:45;;;;;;;;;;;;;;;;;;6298989;28;19935;-91
2023/09/21 13:38:51;;;;;;;;;;;;;;;;;;6299416;28;20341;-91
2023/09/21 13:41:53;;;;;;;;;;;;;;;;;;6298322;28;19905;-92
2023/09/21 13:44:53;;;;;;;;;;;;;;;;;;6298989;28;19904;-92
2023/09/21 13:47:55;;;;;;;;;;;;;;;;;;6297734;28;20354;-92
2023/09/21 13:50:55;;;;;;;;;;;;;;;;;;6298325;28;19909;-92
2023/09/21 13:53:58;;;;;;;;;;;;;;;;;;6298644;28;19909;-92
2023/09/21 13:56:59;;;;;;;;;;;;;;;;;;6280078;28;19905;-86
2023/09/21 14:00:00;;;;;;;;;;;;;;;;;;6279004;28;19905;-86
2023/09/21 14:03:00;;;;;;;;;;;;;;;;;;6298059;28;19908;-86
2023/09/21 14:06:00;;;;;;;;;;;;;;;;;;6297334;28;19912;-85
2023/09/21 14:09:00;;;;;;;;;;;;;;;;;;6258912;28;19928;-86
2023/09/21 14:12:02;;;;;;;;;;;;;;;;;;6272649;28;20011;-86
2023/09/21 14:15:02;;;;;;;;;;;;;;;;;;6255800;28;20359;-85
2023/09/21 14:18:03;;;;;;;;;;;;;;;;;;6259668;28;19904;-85
2023/09/21 14:21:04;;;;;;;;;;;;;;;;;;6276776;28;19924;-85
2023/09/21 14:24:04;;;;;;;;;;;;;;;;;;6276708;28;19912;-85
2023/09/21 14:27:04;;;;;;;;;;;;;;;;;;6276639;28;19904;-85
2023/09/21 14:30:04;;;;;;;;;;;;;;;;;;6276611;28;20362;-85
2023/09/21 14:33:08;;;;;;;;;;;;;;;;;;6277241;28;20354;-84
2023/09/21 14:36:10;;;;;;;;;;;;;;;;;;6277724;28;19904;-85
2023/09/21 14:39:10;;;;;;;;;;;;;;;;;;6276805;28;19904;-85
2023/09/21 14:42:10;;;;;;;;;;;;;;;;;;6276430;28;19931;-85
2023/09/21 14:45:13;;;;;;;;;;;;;;;;;;6276366;28;19979;-85
2023/09/21 14:48:14;;;;;;;;;;;;;;;;;;6277729;28;19909;-86
2023/09/21 14:51:14;;;;;;;;;;;;;;;;;;6276590;28;19929;-87
2023/09/21 14:54:14;;;;;;;;;;;;;;;;;;6276395;28;19905;-85
2023/09/21 14:57:15;;;;;;;;;;;;;;;;;;6275936;28;20417;-85
2023/09/21 15:00:17;;;;;;;;;;;;;;;;;;6258008;28;19959;-85
2023/09/21 15:03:17;;;;;;;;;;;;;;;;;;6277185;28;19904;-84
2023/09/21 15:06:17;;;;;;;;;;;;;;;;;;6276435;28;20385;-91
2023/09/21 15:09:18;;;;;;;;;;;;;;;;;;6280150;28;20010;-91
2023/09/21 15:12:18;;;;;;;;;;;;;;;;;;6266478;28;19934;-91
2023/09/21 15:15:18;;;;;;;;;;;;;;;;;;6282880;28;19904;-91
2023/09/21 15:18:18;;;;;;;;;;;;;;;;;;6300841;28;19959;-85
2023/09/21 15:21:18;;;;;;;;;;;;;;;;;;6282595;28;19998;-85
2023/09/21 15:24:19;;;;;;;;;;;;;;;;;;6282293;28;20432;-85
2023/09/21 15:27:20;;;;;;;;;;;;;;;;;;6299752;28;19904;-84
2023/09/21 15:30:20;;;;;;;;;;;;;;;;;;6300454;28;20354;-85
2023/09/21 15:33:20;;;;;;;;;;;;;;;;;;6300436;28;19908;-85
2023/09/21 15:36:20;;;;;;;;;;;;;;;;;;6282104;28;19986;-86
2023/09/21 15:39:20;;;;;;;;;;;;;;;;;;6300253;28;19971;-85
2023/09/21 15:42:23;;;;;;;;;;;;;;;;;;6282045;28;19943;-85
2023/09/21 15:45:23;;;;;;;;;;;;;;;;;;6281691;28;19920;-85
2023/09/21 15:48:26;;;;;;;;;;;;;;;;;;6299780;28;19927;-85
2023/09/21 15:51:26;;;;;;;;;;;;;;;;;;6299605;28;20286;-85
2023/09/21 15:54:27;;;;;;;;;;;;;;;;;;6299549;28;19956;-86
2023/09/21 15:57:30;;;;;;;;;;;;;;;;;;6299910;28;19905;-85
2023/09/21 16:00:32;;;;;;;;;;;;;;;;;;6300111;28;19912;-86
2023/09/21 16:03:32;;;;;;;;;;;;;;;;;;6299259;28;20309;-86
2023/09/21 16:06:32;;;;;;;;;;;;;;;;;;6299282;28;19904;-85
2023/09/21 16:09:32;;;;;;;;;;;;;;;;;;6300090;28;19956;-85
2023/09/21 16:12:32;;;;;;;;;;;;;;;;;;6299131;28;20362;-85
2023/09/21 16:15:34;;;;;;;;;;;;;;;;;;6299381;28;19905;-85
2023/09/21 16:18:34;;;;;;;;;;;;;;;;;;6299287;28;19905;-92
2023/09/21 16:21:34;;;;;;;;;;;;;;;;;;6298973;28;20290;-91
2023/09/21 16:24:34;;;;;;;;;;;;;;;;;;6299637;28;19904;-90
2023/09/21 16:27:36;;;;;;;;;;;;;;;;;;6299100;28;20552;-91
2023/09/21 16:30:36;;;;;;;;;;;;;;;;;;6281050;28;19904;-91
2023/09/21 16:33:37;;;;;;;;;;;;;;;;;;6298862;28;19915;-91
2023/09/21 16:36:37;;;;;;;;;;;;;;;;;;6280653;28;19908;-91
2023/09/21 16:39:38;;;;;;;;;;;;;;;;;;6280440;28;19988;-91
2023/09/21 16:42:38;;;;;;;;;;;;;;;;;;6298716;28;19904;-91
2023/09/21 16:45:41;;;;;;;;;;;;;;;;;;6298350;28;19904;-91
2023/09/21 16:48:42;;;;;;;;;;;;;;;;;;6299630;28;19928;-90
2023/09/21 16:51:42;;;;;;;;;;;;;;;;;;6298197;28;19908;-91
2023/09/21 16:54:43;;;;;;;;;;;;;;;;;;6298719;28;20255;-91
2023/09/21 16:57:43;;;;;;;;;;;;;;;;;;6298111;28;19905;-91
2023/09/21 17:00:43;;;;;;;;;;;;;;;;;;6280501;28;19946;-91
2023/09/21 17:03:45;;;;;;;;;;;;;;;;;;6298029;28;19911;-90
2023/09/21 17:06:45;;;;;;;;;;;;;;;;;;6279703;28;19962;-90
2023/09/21 17:09:45;;;;;;;;;;;;;;;;;;6297854;28;20271;-90
2023/09/21 17:12:45;;;;;;;;;;;;;;;;;;6279322;28;19939;-91
2023/09/21 17:15:46;;;;;;;;;;;;;;;;;;6297889;28;19904;-90
2023/09/21 17:18:48;;;;;;;;;;;;;;;;;;6279630;28;19970;-90
2023/09/21 17:21:48;;;;;;;;;;;;;;;;;;6298169;28;19904;-90
2023/09/21 17:24:48;;;;;;;;;;;;;;;;;;6297534;28;19911;-89
2023/09/21 17:27:48;;;;;;;;;;;;;;;;;;6297776;28;20397;-90
2023/09/21 17:30:49;;;;;;;;;;;;;;;;;;6297425;28;19904;-90
2023/09/21 17:33:49;;;;;;;;;;;;;;;;;;6279912;28;20256;-91
2023/09/21 17:36:49;;;;;;;;;;;;;;;;;;6296974;28;19913;-91
2023/09/21 17:39:51;;;;;;;;;;;;;;;;;;6279697;28;19919;-90
2023/09/21 17:42:52;;;;;;;;;;;;;;;;;;6279466;28;19904;-90
2023/09/21 17:45:52;;;;;;;;;;;;;;;;;;6297693;28;19955;-91
2023/09/21 17:48:52;;;;;;;;;;;;;;;;;;6279470;28;20302;-91
2023/09/21 17:51:52;;;;;;;;;;;;;;;;;;6301928;28;19960;-91
2023/09/21 17:54:52;;;;;;;;;;;;;;;;;;6302383;28;19904;-90
2023/09/21 17:57:52;;;;;;;;;;;;;;;;;;6303699;28;19904;-92
2023/09/21 18:00:53;;;;;;;;;;;;;;;;;;6310096;28;19926;-96
2023/09/21 18:03:53;;;;;;;;;;;;;;;;;;6296158;28;19904;-93
2023/09/21 18:06:54;;;;;;;;;;;;;;;;;;6303288;28;19904;-94
2023/09/21 18:09:55;;;;;;;;;;;;;;;;;;6302772;28;19916;-93
2023/09/21 18:12:56;;;;;;;;;;;;;;;;;;6302759;28;20396;-92
2023/09/21 18:15:56;;;;;;;;;;;;;;;;;;6302682;28;19909;-92
2023/09/21 18:18:57;;;;;;;;;;;;;;;;;;6284408;28;19904;-92
2023/09/21 18:21:57;;;;;;;;;;;;;;;;;;6284474;28;19904;-92
2023/09/21 18:24:57;;;;;;;;;;;;;;;;;;6303407;28;19987;-92
2023/09/21 18:27:57;;;;;;;;;;;;;;;;;;6308799;28;19958;-91
2023/09/21 18:30:57;;;;;;;;;;;;;;;;;;6292460;28;20049;-91
2023/09/21 18:33:59;;;;;;;;;;;;;;;;;;6292349;28;20007;-90
2023/09/21 18:36:59;;;;;;;;;;;;;;;;;;6306403;28;20286;-83
2023/09/21 18:40:00;;;;;;;;;;;;;;;;;;6301028;28;19947;-83
2023/09/21 18:43:01;;;;;;;;;;;;;;;;;;6301716;28;19984;-82
2023/09/21 18:46:01;;;;;;;;;;;;;;;;;;6302160;28;19904;-89
2023/09/21 18:49:01;;;;;;;;;;;;;;;;;;6308664;28;19995;-91
2023/09/21 18:52:04;;;;;;;;;;;;;;;;;;6287905;28;19908;-91
2023/09/21 18:55:09;;;;;;;;;;;;;;;;;;6303281;28;19904;-91
2023/09/21 18:58:10;;;;;;;;;;;;;;;;;;6285357;28;19904;-91
2023/09/21 19:01:12;;;;;;;;;;;;;;;;;;6305028;28;19905;-90